createdAt,value
2019-03-28T00:01:35.462Z,73.40
2019-03-28T00:04:02.051Z,73.80
2019-03-28T00:06:28.637Z,74.10
2019-03-28T00:08:54.974Z,74.20
2019-03-28T00:11:21.345Z,73.90
2019-03-28T00:13:47.865Z,73.80
2019-03-28T00:16:14.338Z,74.50
2019-03-28T00:18:40.693Z,73.40
2019-03-28T00:21:07.015Z,72.80
2019-03-28T00:23:41.199Z,72.80
2019-03-28T00:26:07.434Z,73.40
2019-03-28T00:28:33.724Z,74.20
2019-03-28T00:31:00.205Z,75.20
2019-03-28T00:33:26.580Z,75.40
2019-03-28T00:35:52.891Z,75.50
2019-03-28T00:38:19.165Z,75.40
2019-03-28T00:40:45.468Z,75.80
2019-03-28T00:43:11.744Z,74.90
2019-03-28T00:45:38.112Z,75.00
2019-03-28T00:48:04.470Z,75.20
2019-03-28T00:50:33.063Z,75.60
2019-03-28T00:52:58.979Z,76.50
2019-03-28T00:55:25.254Z,76.70
2019-03-28T00:57:51.499Z,76.80
2019-03-28T01:00:18.559Z,76.70
2019-03-28T01:02:44.949Z,76.90
2019-03-28T01:05:12.267Z,77.50
2019-03-28T01:07:38.574Z,78.80
2019-03-28T01:10:05.072Z,79.10
2019-03-28T01:12:31.491Z,79.00
2019-03-28T01:14:58.165Z,78.50
2019-03-28T01:17:24.412Z,79.00
2019-03-28T01:19:50.881Z,78.10
2019-03-28T01:22:17.227Z,77.00
2019-03-28T01:24:43.704Z,76.00
2019-03-28T01:27:10.307Z,75.50
2019-03-28T01:29:36.728Z,75.90
2019-03-28T01:32:03.078Z,76.20
2019-03-28T01:34:29.346Z,76.30
2019-03-28T01:36:56.359Z,76.20
2019-03-28T01:39:22.661Z,76.50
2019-03-28T01:41:49.020Z,77.80
2019-03-28T01:44:15.524Z,78.20
2019-03-28T01:46:41.885Z,78.90
2019-03-28T01:49:08.313Z,79.20
2019-03-28T01:51:34.830Z,80.00
2019-03-28T01:54:02.321Z,80.30
2019-03-28T01:56:28.654Z,79.20
2019-03-28T01:58:55.237Z,78.00
2019-03-28T02:01:21.718Z,77.80
2019-03-28T02:03:48.085Z,78.40
2019-03-28T02:06:14.649Z,78.80
2019-03-28T02:08:41.240Z,78.80
2019-03-28T02:11:08.193Z,78.70
2019-03-28T02:13:34.603Z,78.20
2019-03-28T02:16:01.121Z,78.80
2019-03-28T02:18:27.502Z,78.90
2019-03-28T02:20:53.987Z,78.90
2019-03-28T02:23:20.580Z,79.50
2019-03-28T02:25:46.965Z,79.40
2019-03-28T02:28:13.344Z,80.60
2019-03-28T02:30:39.814Z,81.50
2019-03-28T02:33:06.178Z,81.20
2019-03-28T02:35:32.740Z,80.10
2019-03-28T02:37:59.186Z,79.10
2019-03-28T02:40:25.519Z,80.20
2019-03-28T02:42:51.823Z,80.20
2019-03-28T02:45:18.315Z,80.50
2019-03-28T02:47:44.694Z,81.20
2019-03-28T02:50:11.490Z,81.20
2019-03-28T02:52:37.990Z,81.40
2019-03-28T02:55:06.116Z,81.70
2019-03-28T02:57:41.043Z,81.50
2019-03-28T03:00:00.884Z,82.30
2019-03-28T03:02:27.193Z,82.20
2019-03-28T03:04:53.683Z,83.60
2019-03-28T03:07:20.041Z,84.60
2019-03-28T03:09:46.303Z,84.90
2019-03-28T03:12:12.811Z,83.70
2019-03-28T03:14:39.120Z,83.30
2019-03-28T03:17:05.883Z,82.60
2019-03-28T03:19:32.291Z,82.60
2019-03-28T03:21:58.796Z,82.70
2019-03-28T03:24:25.270Z,82.50
2019-03-28T03:26:51.930Z,82.70
2019-03-28T03:29:18.488Z,82.90
2019-03-28T03:31:44.878Z,83.40
2019-03-28T03:34:11.576Z,82.90
2019-03-28T03:36:37.995Z,82.70
2019-03-28T03:39:05.721Z,83.00
2019-03-28T03:41:32.495Z,83.70
2019-03-28T03:43:58.959Z,83.30
2019-03-28T03:46:25.429Z,84.10
2019-03-28T03:48:51.702Z,83.50
2019-03-28T03:51:18.176Z,83.50
2019-03-28T03:53:45.838Z,84.20
2019-03-28T03:56:12.230Z,85.90
2019-03-28T03:58:38.495Z,86.30
2019-03-28T04:01:04.989Z,85.40
2019-03-28T04:03:31.367Z,84.50
2019-03-28T04:05:57.656Z,85.20
2019-03-28T04:08:23.915Z,86.20
2019-03-28T04:10:50.315Z,86.50
2019-03-28T04:13:16.573Z,86.80
2019-03-28T04:15:43.094Z,85.60
2019-03-28T04:18:09.317Z,84.30
2019-03-28T04:20:35.818Z,86.40
2019-03-28T04:23:02.096Z,87.20
2019-03-28T04:25:28.688Z,85.40
2019-03-28T04:27:55.084Z,84.00
2019-03-28T04:30:22.689Z,84.40
2019-03-28T04:32:49.262Z,83.70
2019-03-28T04:35:15.643Z,83.80
2019-03-28T04:37:41.904Z,83.30
2019-03-28T04:40:08.958Z,84.00
2019-03-28T04:42:35.392Z,85.00
2019-03-28T04:45:01.848Z,85.20
2019-03-28T04:47:28.599Z,85.50
2019-03-28T04:49:54.860Z,85.60
2019-03-28T04:52:21.231Z,86.10
2019-03-28T04:54:47.601Z,86.00
2019-03-28T04:57:13.905Z,86.80
2019-03-28T04:59:40.279Z,86.40
2019-03-28T05:02:06.824Z,87.10
2019-03-28T05:04:33.182Z,87.20
2019-03-28T05:06:59.581Z,87.30
2019-03-28T05:09:25.882Z,87.80
2019-03-28T05:11:52.295Z,88.30
2019-03-28T05:14:18.735Z,87.80
2019-03-28T05:16:45.089Z,87.30
2019-03-28T05:19:11.397Z,87.90
2019-03-28T05:21:38.608Z,88.40
2019-03-28T05:24:04.984Z,87.90
2019-03-28T05:26:31.247Z,88.20
2019-03-28T05:28:58.851Z,88.60
2019-03-28T05:31:25.776Z,87.80
2019-03-28T05:33:52.091Z,88.90
2019-03-28T05:36:18.554Z,89.20
2019-03-28T05:38:45.202Z,89.70
2019-03-28T05:41:11.659Z,90.10
2019-03-28T05:43:38.320Z,90.20
2019-03-28T05:46:04.886Z,90.50
2019-03-28T05:48:31.166Z,90.40
2019-03-28T05:50:58.153Z,90.60
2019-03-28T05:53:24.441Z,90.90
2019-03-28T05:55:50.744Z,90.90
2019-03-28T05:58:28.823Z,91.40
2019-03-28T06:00:55.697Z,91.60
2019-03-28T06:03:22.120Z,91.90
2019-03-28T06:05:48.513Z,91.50
2019-03-28T06:08:14.877Z,91.40
2019-03-28T06:10:41.453Z,91.70
2019-03-28T06:13:07.928Z,92.20
2019-03-28T06:15:34.400Z,92.20
2019-03-28T06:18:00.678Z,92.40
2019-03-28T06:20:27.049Z,92.40
2019-03-28T06:22:53.415Z,92.30
2019-03-28T06:25:19.747Z,92.60
2019-03-28T06:27:46.198Z,93.10
2019-03-28T06:30:12.702Z,93.20
2019-03-28T06:32:43.148Z,93.30
2019-03-28T06:35:07.563Z,93.50
2019-03-28T06:37:34.036Z,93.60
2019-03-28T06:40:00.499Z,93.80
2019-03-28T06:42:26.825Z,94.00
2019-03-28T06:44:53.208Z,94.20
2019-03-28T06:47:21.092Z,94.10
2019-03-28T06:49:47.626Z,94.10
2019-03-28T06:52:14.098Z,94.20
2019-03-28T06:54:40.461Z,94.20
2019-03-28T06:57:06.766Z,94.30
2019-03-28T06:59:37.609Z,94.20
2019-03-28T07:02:01.257Z,94.10
2019-03-28T07:04:27.690Z,94.70
2019-03-28T07:06:54.096Z,94.60
2019-03-28T07:09:20.359Z,95.10
2019-03-28T07:11:46.737Z,95.30
2019-03-28T07:14:13.442Z,95.30
2019-03-28T07:16:39.965Z,95.80
2019-03-28T07:19:06.445Z,96.20
2019-03-28T07:21:32.828Z,96.20
2019-03-28T07:24:00.010Z,96.30
2019-03-28T07:26:26.511Z,96.30
2019-03-28T07:28:54.313Z,96.10
2019-03-28T07:31:20.882Z,96.20
2019-03-28T07:33:47.510Z,95.80
2019-03-28T07:36:13.983Z,97.10
2019-03-28T07:38:40.372Z,96.60
2019-03-28T07:41:06.654Z,96.50
2019-03-28T07:43:32.916Z,96.60
2019-03-28T07:45:59.330Z,96.20
2019-03-28T07:48:25.744Z,95.80
2019-03-28T07:50:52.304Z,95.80
2019-03-28T07:53:20.249Z,95.50
2019-03-28T07:55:47.868Z,94.40
2019-03-28T07:58:14.236Z,92.60
2019-03-28T08:00:41.060Z,92.20
2019-03-28T08:03:07.430Z,91.30
2019-03-28T08:05:33.678Z,91.00
2019-03-28T08:08:00.171Z,91.10
2019-03-28T08:10:26.635Z,90.20
2019-03-28T08:12:52.827Z,89.20
2019-03-28T08:15:19.257Z,88.40
2019-03-28T08:17:45.659Z,87.50
2019-03-28T08:20:12.296Z,87.10
2019-03-28T08:22:39.145Z,86.50
2019-03-28T08:25:11.189Z,85.90
2019-03-28T08:27:35.415Z,85.00
2019-03-28T08:30:03.063Z,84.40
2019-03-28T08:32:29.545Z,85.20
2019-03-28T08:34:56.717Z,84.10
2019-03-28T08:37:23.275Z,83.60
2019-03-28T08:39:49.776Z,82.70
2019-03-28T08:42:16.062Z,80.60
2019-03-28T08:44:42.465Z,79.70
2019-03-28T08:47:08.820Z,79.20
2019-03-28T08:49:35.079Z,78.90
2019-03-28T08:52:01.390Z,77.30
2019-03-28T08:54:27.877Z,77.30
2019-03-28T08:56:54.321Z,76.50
2019-03-28T08:59:20.694Z,77.00
2019-03-28T09:01:47.062Z,77.10
2019-03-28T09:04:13.458Z,74.80
2019-03-28T09:06:39.952Z,73.70
2019-03-28T09:09:08.715Z,72.50
2019-03-28T09:11:35.217Z,72.70
2019-03-28T09:14:01.609Z,71.90
2019-03-28T09:16:28.062Z,69.40
2019-03-28T09:18:54.502Z,67.70
2019-03-28T09:21:20.907Z,66.90
2019-03-28T09:23:47.310Z,67.00
2019-03-28T09:26:13.581Z,65.20
2019-03-28T09:28:40.205Z,66.50
2019-03-28T09:31:19.276Z,66.30
2019-03-28T09:33:34.866Z,64.30
2019-03-28T09:36:01.141Z,63.40
2019-03-28T09:38:27.700Z,61.90
2019-03-28T09:40:54.042Z,60.90
2019-03-28T09:43:20.389Z,61.00
2019-03-28T09:45:46.698Z,60.10
2019-03-28T09:48:13.144Z,60.00
2019-03-28T09:50:39.671Z,58.90
2019-03-28T09:53:06.152Z,58.50
2019-03-28T09:55:32.446Z,57.40
2019-03-28T09:57:58.830Z,56.90
2019-03-28T10:00:25.407Z,56.70
2019-03-28T10:02:51.886Z,54.30
2019-03-28T10:05:18.282Z,52.50
2019-03-28T10:07:44.517Z,54.30
2019-03-28T10:10:11.168Z,52.70
2019-03-28T10:12:37.565Z,51.80
2019-03-28T10:15:05.035Z,52.80
2019-03-28T10:17:31.391Z,51.60
2019-03-28T10:19:57.730Z,50.40
2019-03-28T10:22:24.058Z,49.80
2019-03-28T10:24:50.569Z,50.40
2019-03-28T10:27:19.235Z,49.30
2019-03-28T10:29:45.053Z,48.50
2019-03-28T10:32:11.350Z,48.20
2019-03-28T10:34:37.841Z,48.30
2019-03-28T10:37:04.206Z,48.10
2019-03-28T10:39:30.677Z,46.20
2019-03-28T10:41:57.366Z,45.70
2019-03-28T10:44:23.855Z,46.00
2019-03-28T10:46:50.191Z,45.30
2019-03-28T10:49:16.658Z,44.80
2019-03-28T10:51:42.923Z,43.90
2019-03-28T10:54:19.339Z,43.20
2019-03-28T10:56:50.795Z,42.60
2019-03-28T10:59:05.629Z,42.60
2019-03-28T11:01:47.477Z,42.70
2019-03-28T11:04:00.022Z,41.90
2019-03-28T11:06:26.475Z,41.90
2019-03-28T11:08:52.908Z,41.40
2019-03-28T11:11:19.193Z,41.60
2019-03-28T11:13:45.572Z,41.80
2019-03-28T11:16:15.906Z,42.40
2019-03-28T11:18:42.462Z,41.80
2019-03-28T11:21:08.843Z,42.40
2019-03-28T11:23:35.223Z,42.00
2019-03-28T11:26:01.705Z,40.60
2019-03-28T11:28:28.106Z,40.80
2019-03-28T11:30:54.384Z,42.70
2019-03-28T11:33:20.857Z,42.60
2019-03-28T11:35:47.186Z,42.20
2019-03-28T11:38:13.578Z,41.50
2019-03-28T11:40:42.814Z,41.80
2019-03-28T11:43:08.134Z,41.60
2019-03-28T11:45:34.510Z,41.30
2019-03-28T11:48:00.894Z,40.70
2019-03-28T11:50:27.354Z,41.60
2019-03-28T11:52:53.669Z,41.50
2019-03-28T11:55:19.916Z,40.90
2019-03-28T11:57:46.401Z,41.10
2019-03-28T12:00:14.775Z,40.60
2019-03-28T12:02:41.248Z,41.40
2019-03-28T12:05:07.826Z,40.20
2019-03-28T12:07:34.139Z,41.10
2019-03-28T12:10:00.584Z,42.40
2019-03-28T12:12:26.980Z,42.80
2019-03-28T12:14:53.474Z,43.10
2019-03-28T12:17:20.112Z,41.40
2019-03-28T12:19:46.518Z,41.00
2019-03-28T12:22:12.723Z,40.10
2019-03-28T12:24:39.106Z,40.30
2019-03-28T12:27:05.592Z,39.80
2019-03-28T12:29:31.962Z,40.40
2019-03-28T12:31:58.504Z,40.90
2019-03-28T12:34:24.786Z,39.90
2019-03-28T12:36:51.230Z,38.80
2019-03-28T12:39:17.688Z,38.70
2019-03-28T12:41:44.182Z,37.70
2019-03-28T12:44:10.570Z,38.30
2019-03-28T12:46:36.951Z,38.70
2019-03-28T12:49:03.475Z,38.30
2019-03-28T12:51:29.818Z,38.20
2019-03-28T12:53:56.243Z,38.40
2019-03-28T12:56:22.504Z,38.30
2019-03-28T12:58:48.852Z,38.50
2019-03-28T13:01:15.167Z,38.20
2019-03-28T13:03:45.915Z,38.50
2019-03-28T13:06:09.573Z,38.50
2019-03-28T13:08:35.921Z,37.70
2019-03-28T13:11:02.339Z,37.70
2019-03-28T13:13:29.411Z,37.30
2019-03-28T13:15:55.710Z,37.00
2019-03-28T13:18:21.959Z,36.80
2019-03-28T13:20:48.691Z,36.50
2019-03-28T13:23:15.226Z,37.00
2019-03-28T13:25:41.773Z,36.90
2019-03-28T13:28:08.214Z,37.00
2019-03-28T13:30:34.551Z,36.80
2019-03-28T13:33:01.062Z,37.60
2019-03-28T13:35:27.349Z,38.50
2019-03-28T13:37:53.729Z,38.10
2019-03-28T13:40:20.083Z,38.90
2019-03-28T13:42:46.368Z,39.70
2019-03-28T13:45:13.153Z,39.40
2019-03-28T13:47:39.620Z,38.50
2019-03-28T13:50:07.375Z,38.20
2019-03-28T13:52:33.877Z,38.50
2019-03-28T13:55:00.107Z,39.00
2019-03-28T13:57:26.360Z,38.70
2019-03-28T13:59:52.966Z,38.80
2019-03-28T14:02:19.263Z,39.60
2019-03-28T14:04:45.539Z,39.90
2019-03-28T14:07:11.889Z,39.70
2019-03-28T14:09:38.198Z,39.40
2019-03-28T14:12:04.676Z,38.90
2019-03-28T14:14:30.959Z,39.40
2019-03-28T14:16:57.408Z,38.80
2019-03-28T14:19:23.809Z,39.30
2019-03-28T14:21:51.245Z,39.40
2019-03-28T14:24:17.580Z,40.30
2019-03-28T14:26:43.951Z,39.70
2019-03-28T14:29:10.308Z,39.90
2019-03-28T14:31:36.603Z,39.80
2019-03-28T14:34:02.969Z,40.20
2019-03-28T14:36:29.377Z,40.40
2019-03-28T14:38:55.772Z,40.60
2019-03-28T14:41:22.629Z,40.80
2019-03-28T14:43:49.055Z,40.90
2019-03-28T14:46:15.545Z,41.40
2019-03-28T14:48:42.007Z,40.60
2019-03-28T14:51:08.394Z,40.80
2019-03-28T14:53:34.770Z,40.90
2019-03-28T14:56:01.655Z,40.90
2019-03-28T14:58:29.814Z,41.10
2019-03-28T15:00:56.070Z,41.00
2019-03-28T15:03:27.041Z,41.00
2019-03-28T15:05:50.603Z,41.40
2019-03-28T15:08:17.970Z,41.90
2019-03-28T15:10:44.725Z,42.10
2019-03-28T15:13:11.130Z,42.30
2019-03-28T15:15:38.824Z,42.10
2019-03-28T15:18:05.172Z,41.80
2019-03-28T15:20:31.444Z,42.00
2019-03-28T15:22:57.918Z,42.20
2019-03-28T15:25:24.427Z,42.10
2019-03-28T15:27:50.701Z,42.40
2019-03-28T15:30:18.252Z,42.30
2019-03-28T15:32:44.713Z,42.00
2019-03-28T15:35:11.192Z,42.30
2019-03-28T15:37:37.422Z,42.20
2019-03-28T15:40:05.859Z,42.50
2019-03-28T15:42:32.225Z,42.80
2019-03-28T15:44:58.765Z,43.10
2019-03-28T15:47:24.992Z,43.40
2019-03-28T15:49:51.318Z,43.40
2019-03-28T15:52:17.839Z,43.10
2019-03-28T15:54:44.318Z,43.70
2019-03-28T15:57:10.766Z,43.50
2019-03-28T15:59:37.150Z,43.80
2019-03-28T16:02:04.263Z,43.50
2019-03-28T16:04:30.607Z,43.40
2019-03-28T16:06:56.864Z,44.70
2019-03-28T16:09:23.289Z,45.50
2019-03-28T16:12:02.092Z,46.20
2019-03-28T16:14:17.639Z,46.60
2019-03-28T16:16:44.148Z,47.20
2019-03-28T16:19:10.694Z,47.30
2019-03-28T16:21:37.170Z,47.50
2019-03-28T16:24:03.596Z,48.40
2019-03-28T16:26:29.839Z,47.70
2019-03-28T16:28:56.546Z,47.80
2019-03-28T16:31:22.881Z,48.10
2019-03-28T16:33:49.627Z,48.30
2019-03-28T16:36:15.973Z,48.60
2019-03-28T16:38:42.353Z,48.20
2019-03-28T16:41:08.588Z,48.50
2019-03-28T16:43:34.995Z,48.60
2019-03-28T16:46:01.324Z,48.70
2019-03-28T16:48:27.772Z,48.70
2019-03-28T16:50:54.048Z,48.60
2019-03-28T16:53:20.321Z,48.70
2019-03-28T16:55:46.747Z,49.10
2019-03-28T16:58:13.239Z,49.30
2019-03-28T17:00:39.824Z,49.40
2019-03-28T17:03:06.745Z,49.50
2019-03-28T17:05:34.732Z,49.30
2019-03-28T17:08:01.350Z,49.40
2019-03-28T17:10:34.545Z,49.50
2019-03-28T17:13:00.975Z,49.30
2019-03-28T17:15:27.451Z,49.50
2019-03-28T17:17:53.758Z,49.80
2019-03-28T17:20:20.131Z,50.00
2019-03-28T17:22:46.522Z,50.20
2019-03-28T17:25:13.017Z,50.50
2019-03-28T17:27:39.388Z,50.70
2019-03-28T17:30:07.385Z,51.60
2019-03-28T17:32:36.553Z,51.20
2019-03-28T17:35:03.158Z,51.60
2019-03-28T17:37:29.955Z,51.70
2019-03-28T17:39:56.264Z,52.00
2019-03-28T17:42:23.873Z,52.40
2019-03-28T17:44:50.343Z,52.80
2019-03-28T17:47:16.781Z,53.30
2019-03-28T17:49:43.266Z,53.50
2019-03-28T17:52:09.513Z,53.80
2019-03-28T17:54:35.902Z,54.10
2019-03-28T17:57:02.365Z,54.30
2019-03-28T17:59:28.697Z,54.70
2019-03-28T18:01:54.963Z,55.00
2019-03-28T18:04:23.133Z,55.10
2019-03-28T18:06:49.548Z,55.40
2019-03-28T18:09:16.010Z,55.80
2019-03-28T18:11:42.458Z,55.40
2019-03-28T18:14:08.728Z,56.30
2019-03-28T18:16:35.262Z,56.70
2019-03-28T18:19:01.707Z,56.90
2019-03-28T18:21:28.079Z,57.20
2019-03-28T18:23:54.475Z,57.50
2019-03-28T18:26:20.946Z,57.50
2019-03-28T18:28:47.376Z,57.90
2019-03-28T18:31:14.840Z,58.00
2019-03-28T18:33:41.226Z,58.30
2019-03-28T18:36:08.012Z,58.40
2019-03-28T18:38:34.275Z,58.60
2019-03-28T18:41:00.517Z,58.70
2019-03-28T18:43:26.891Z,58.80
2019-03-28T18:45:53.268Z,59.00
2019-03-28T18:48:29.104Z,59.40
2019-03-28T18:50:47.669Z,59.70
2019-03-28T18:53:13.965Z,60.70
2019-03-28T18:55:40.411Z,60.40
2019-03-28T18:58:06.895Z,60.90
2019-03-28T19:00:33.369Z,60.90
2019-03-28T19:02:59.776Z,61.10
2019-03-28T19:05:26.146Z,61.50
2019-03-28T19:07:52.510Z,61.70
2019-03-28T19:10:18.976Z,62.10
2019-03-28T19:12:45.333Z,62.30
2019-03-28T19:15:11.899Z,62.40
2019-03-28T19:17:38.246Z,62.50
2019-03-28T19:20:06.746Z,62.70
2019-03-28T19:22:33.157Z,62.90
2019-03-28T19:24:59.530Z,63.00
2019-03-28T19:27:25.975Z,63.30
2019-03-28T19:29:52.403Z,64.10
2019-03-28T19:32:18.671Z,63.80
2019-03-28T19:34:45.018Z,63.90
2019-03-28T19:37:12.225Z,64.20
2019-03-28T19:39:38.811Z,64.30
2019-03-28T19:42:05.303Z,64.50
2019-03-28T19:44:31.599Z,64.50
2019-03-28T19:46:58.137Z,64.90
2019-03-28T19:49:24.483Z,65.10
2019-03-28T19:51:50.881Z,65.40
2019-03-28T19:54:17.147Z,65.60
2019-03-28T19:56:43.458Z,65.80
2019-03-28T19:59:09.843Z,66.20
2019-03-28T20:01:36.410Z,66.50
2019-03-28T20:04:02.860Z,66.80
2019-03-28T20:06:29.378Z,66.90
2019-03-28T20:08:55.656Z,67.10
2019-03-28T20:11:23.367Z,67.30
2019-03-28T20:13:50.055Z,67.70
2019-03-28T20:16:16.598Z,67.80
2019-03-28T20:18:43.996Z,68.20
2019-03-28T20:21:11.346Z,68.40
2019-03-28T20:23:37.751Z,68.80
2019-03-28T20:26:04.422Z,68.90
2019-03-28T20:28:30.839Z,69.30
2019-03-28T20:30:57.400Z,69.60
2019-03-28T20:33:25.200Z,69.90
2019-03-28T20:36:06.320Z,70.20
2019-03-28T20:38:20.271Z,70.50
2019-03-28T20:40:46.719Z,70.80
2019-03-28T20:43:13.283Z,71.00
2019-03-28T20:45:39.688Z,71.20
2019-03-28T20:48:06.025Z,71.30
2019-03-28T20:50:32.500Z,71.50
2019-03-28T20:52:58.876Z,71.70
2019-03-28T20:55:25.644Z,71.80
2019-03-28T20:57:52.186Z,72.20
2019-03-28T21:00:39.149Z,72.50
2019-03-28T21:03:05.766Z,72.80
2019-03-28T21:05:32.180Z,73.20
2019-03-28T21:07:58.719Z,73.60
2019-03-28T21:10:25.483Z,74.10
2019-03-28T21:12:52.972Z,74.30
2019-03-28T21:15:19.824Z,74.40
2019-03-28T21:17:46.400Z,74.70
2019-03-28T21:20:12.881Z,75.20
2019-03-28T21:22:39.272Z,75.60
2019-03-28T21:25:06.320Z,75.80
2019-03-28T21:27:33.084Z,76.10
2019-03-28T21:29:59.862Z,76.50
2019-03-28T21:32:26.124Z,76.70
2019-03-28T21:34:56.172Z,77.00
2019-03-28T21:37:20.767Z,77.10
2019-03-28T21:39:47.115Z,77.50
2019-03-28T21:42:13.467Z,77.80
2019-03-28T21:44:39.960Z,78.00
2019-03-28T21:47:06.680Z,78.90
2019-03-28T21:49:33.026Z,78.50
2019-03-28T21:51:59.523Z,78.80
2019-03-28T21:54:25.761Z,79.00
2019-03-28T21:56:52.025Z,79.30
2019-03-28T21:59:18.505Z,79.50
2019-03-28T22:01:44.794Z,79.70
2019-03-28T22:04:11.097Z,79.90
2019-03-28T22:06:42.981Z,80.20
2019-03-28T22:09:05.908Z,80.20
2019-03-28T22:11:32.438Z,80.50
2019-03-28T22:13:58.806Z,80.70
2019-03-28T22:16:25.288Z,80.80
2019-03-28T22:18:51.650Z,81.10
2019-03-28T22:21:18.116Z,81.50
2019-03-28T22:23:44.677Z,82.80
2019-03-28T22:26:11.062Z,83.00
2019-03-28T22:28:38.095Z,83.30
2019-03-28T22:31:04.978Z,83.40
2019-03-28T22:33:31.642Z,83.60
2019-03-28T22:35:59.295Z,83.60
2019-03-28T22:38:25.664Z,83.90
2019-03-28T22:40:52.046Z,84.00
2019-03-28T22:43:18.521Z,84.10
2019-03-28T22:45:44.860Z,84.10
2019-03-28T22:48:12.391Z,84.60
2019-03-28T22:50:39.467Z,84.70
2019-03-28T22:53:05.888Z,85.60
2019-03-28T22:55:32.158Z,85.10
2019-03-28T22:57:58.661Z,85.20
2019-03-28T23:00:44.803Z,85.30
2019-03-28T23:03:11.683Z,85.60
2019-03-28T23:05:38.205Z,85.70
2019-03-28T23:08:04.754Z,86.20
2019-03-28T23:10:31.274Z,86.50
2019-03-28T23:12:57.702Z,86.80
2019-03-28T23:15:24.203Z,86.90
2019-03-28T23:17:50.686Z,86.90
2019-03-28T23:20:17.036Z,86.90
2019-03-28T23:22:43.451Z,87.00
2019-03-28T23:25:10.851Z,87.10
2019-03-28T23:27:37.312Z,87.60
2019-03-28T23:30:06.929Z,87.80
2019-03-28T23:32:33.340Z,88.20
2019-03-28T23:34:59.763Z,88.30
2019-03-28T23:37:26.859Z,88.70
2019-03-28T23:39:54.984Z,88.90
2019-03-28T23:42:21.252Z,88.90
2019-03-28T23:44:47.537Z,89.60
2019-03-28T23:47:13.919Z,89.80
2019-03-28T23:49:40.666Z,89.90
2019-03-28T23:52:07.218Z,90.00
2019-03-28T23:54:33.517Z,90.20
2019-03-28T23:56:59.762Z,90.40
2019-03-28T23:59:26.145Z,90.70
